SE Lincoln WX Station Historical Data
Daily Summary for April 07, 2020 Units:  Both    English   Metric
Daily Weekly Monthly Yearly Custom
  High: Low: Average:
Temperature: 88.8 °F /  31.6 °C 56 °F /  13.3 °C 68.6 °F /  20.3 °C
Dew Point: 58.4 °F /  14.7 °C 34.3 °F /  1.3 °C 51.3 °F /  10.7 °C
Humidity: 95% 14.6% 67%
Wind Speed: 6.6mph /  10.6km/h - 2.9mph /  4.7km/h
Wind Gust: 17mph /  27.4km/h - -
Wind- - WSW
Pressure: 29.75 in /  1007.3 hPa 29.66 in /  1004.3 hPa -
Precipitation: 0.00 in /  0 mm    
 
Tabular Data for April 07, 2020
Time Temperature Dew Point Pressure Wind Wind Speed Wind Gust Humidity Rainfall Rate (Hourly) solar
00:04 64.6 °F /  18.1 °C 57.9 °F /  14.4 °C 29.71in /  1006hPa SW 4mph /  6.4km/h 10mph /  16.1km/h 79% 0.00in /  0mm 0 W/m2
00:09 64.5 °F /  18.1 °C 57.9 °F /  14.4 °C 29.71in /  1006hPa SSW 4.6mph /  7.4km/h 10mph /  16.1km/h 79.2% 0.00in /  0mm 0 W/m2
00:14 64.4 °F /  18 °C 58.1 °F /  14.5 °C 29.71in /  1006hPa SW 3.7mph /  6km/h 8mph /  12.9km/h 80% 0.00in /  0mm 0 W/m2
00:19 64.3 °F /  17.9 °C 58 °F /  14.4 °C 29.71in /  1006hPa SSW 5.5mph /  8.9km/h 13mph /  20.9km/h 80% 0.00in /  0mm 0 W/m2
00:24 64.2 °F /  17.9 °C 57.9 °F /  14.4 °C 29.72in /  1006.3hPa SW 4.9mph /  7.9km/h 13mph /  20.9km/h 80% 0.00in /  0mm 0 W/m2
00:29 64.2 °F /  17.9 °C 58.2 °F /  14.6 °C 29.72in /  1006.3hPa SSW 4.4mph /  7.1km/h 13mph /  20.9km/h 80.9% 0.00in /  0mm 0 W/m2
00:34 64.1 °F /  17.8 °C 58.2 °F /  14.6 °C 29.72in /  1006.3hPa SW 4.6mph /  7.4km/h 13mph /  20.9km/h 81% 0.00in /  0mm 0 W/m2
00:39 64.1 °F /  17.8 °C 58.1 °F /  14.5 °C 29.72in /  1006.3hPa SSW 4.4mph /  7.1km/h 9mph /  14.5km/h 81% 0.00in /  0mm 0 W/m2
00:44 64 °F /  17.8 °C 58.2 °F /  14.6 °C 29.72in /  1006.3hPa SSW 5.5mph /  8.9km/h 11mph /  17.7km/h 81.5% 0.00in /  0mm 0 W/m2
00:49 64 °F /  17.8 °C 58.4 °F /  14.7 °C 29.72in /  1006.3hPa SSW 4mph /  6.4km/h 12mph /  19.3km/h 82% 0.00in /  0mm 0 W/m2
00:54 63.9 °F /  17.7 °C 58.3 °F /  14.6 °C 29.72in /  1006.3hPa SSW 3.7mph /  6km/h 8mph /  12.9km/h 82% 0.00in /  0mm 0 W/m2
00:59 63.8 °F /  17.7 °C 58.2 °F /  14.6 °C 29.72in /  1006.3hPa SSW 4.8mph /  7.7km/h 10mph /  16.1km/h 82% 0.00in /  0mm 0 W/m2
01:04 63.6 °F /  17.6 °C 58 °F /  14.4 °C 29.72in /  1006.3hPa SSW 3.2mph /  5.1km/h 8mph /  12.9km/h 82% 0.00in /  0mm 0 W/m2
01:09 63.4 °F /  17.4 °C 58.1 °F /  14.5 °C 29.72in /  1006.3hPa SSW 3.4mph /  5.5km/h 8mph /  12.9km/h 82.8% 0.00in /  0mm 0 W/m2
01:14 63.2 °F /  17.3 °C 57.9 °F /  14.4 °C 29.72in /  1006.3hPa SSW 4.1mph /  6.6km/h 10mph /  16.1km/h 83% 0.00in /  0mm 0 W/m2
01:19 62.9 °F /  17.2 °C 57.7 °F /  14.3 °C 29.72in /  1006.3hPa SSW 3.6mph /  5.8km/h 9mph /  14.5km/h 83% 0.00in /  0mm 0 W/m2
01:24 62.7 °F /  17.1 °C 57.8 °F /  14.3 °C 29.72in /  1006.3hPa SSW 3.7mph /  6km/h 9mph /  14.5km/h 83.9% 0.00in /  0mm 0 W/m2
01:29 62.6 °F /  17 °C 57.7 °F /  14.3 °C 29.72in /  1006.3hPa SSW 4mph /  6.4km/h 8mph /  12.9km/h 84% 0.00in /  0mm 0 W/m2
01:34 62.4 °F /  16.9 °C 57.6 °F /  14.2 °C 29.72in /  1006.3hPa SSW 4.4mph /  7.1km/h 11mph /  17.7km/h 84.2% 0.00in /  0mm 0 W/m2
01:39 62.3 °F /  16.8 °C 57.8 °F /  14.3 °C 29.72in /  1006.3hPa SSW 3mph /  4.8km/h 11mph /  17.7km/h 85% 0.00in /  0mm 0 W/m2
01:44 62.2 °F /  16.8 °C 57.6 °F /  14.2 °C 29.72in /  1006.3hPa SSW 2.9mph /  4.7km/h 7mph /  11.3km/h 85% 0.00in /  0mm 0 W/m2
01:49 62 °F /  16.7 °C 57.5 °F /  14.2 °C 29.72in /  1006.3hPa South 3.5mph /  5.6km/h 9mph /  14.5km/h 85% 0.00in /  0mm 0 W/m2
01:54 61.9 °F /  16.6 °C 57.5 °F /  14.2 °C 29.72in /  1006.3hPa SSW 3.2mph /  5.1km/h 9mph /  14.5km/h 85.5% 0.00in /  0mm 0 W/m2
01:59 61.7 °F /  16.5 °C 57.5 °F /  14.2 °C 29.72in /  1006.3hPa SW 3.2mph /  5.1km/h 8mph /  12.9km/h 86% 0.00in /  0mm 0 W/m2
02:04 61.7 °F /  16.5 °C 57.4 °F /  14.1 °C 29.72in /  1006.3hPa SSW 3.8mph /  6.1km/h 10mph /  16.1km/h 86% 0.00in /  0mm 0 W/m2
02:09 61.5 °F /  16.4 °C 57.3 °F /  14.1 °C 29.71in /  1006hPa SW 3.3mph /  5.3km/h 9mph /  14.5km/h 86% 0.00in /  0mm 0 W/m2
02:14 61.4 °F /  16.3 °C 57.2 °F /  14 °C 29.71in /  1006hPa SSW 3.6mph /  5.8km/h 7mph /  11.3km/h 86.2% 0.00in /  0mm 0 W/m2
02:19 61.2 °F /  16.2 °C 57.3 °F /  14.1 °C 29.71in /  1006hPa SSW 4mph /  6.4km/h 9mph /  14.5km/h 87% 0.00in /  0mm 0 W/m2
02:24 61.1 °F /  16.2 °C 57.2 °F /  14 °C 29.71in /  1006hPa SW 2.9mph /  4.7km/h 7mph /  11.3km/h 87% 0.00in /  0mm 0 W/m2
02:29 60.9 °F /  16.1 °C 57.1 °F /  13.9 °C 29.71in /  1006hPa SSW 3.2mph /  5.1km/h 7mph /  11.3km/h 87% 0.00in /  0mm 0 W/m2
02:34 60.7 °F /  15.9 °C 56.9 °F /  13.8 °C 29.70in /  1005.6hPa SSW 2.6mph /  4.2km/h 6mph /  9.7km/h 87.2% 0.00in /  0mm 0 W/m2
02:39 60.6 °F /  15.9 °C 57 °F /  13.9 °C 29.70in /  1005.6hPa SSW 3.5mph /  5.6km/h 9mph /  14.5km/h 88% 0.00in /  0mm 0 W/m2
02:44 60.5 °F /  15.8 °C 56.9 °F /  13.8 °C 29.70in /  1005.6hPa SSW 3.3mph /  5.3km/h 7mph /  11.3km/h 88% 0.00in /  0mm 0 W/m2
02:49 60.4 °F /  15.8 °C 56.8 °F /  13.8 °C 29.70in /  1005.6hPa SSW 2.9mph /  4.7km/h 7mph /  11.3km/h 88% 0.00in /  0mm 0 W/m2
02:54 60.3 °F /  15.7 °C 56.8 °F /  13.8 °C 29.70in /  1005.6hPa SSW 2.3mph /  3.7km/h 5mph /  8km/h 88.3% 0.00in /  0mm 0 W/m2
02:59 60.2 °F /  15.7 °C 56.9 °F /  13.8 °C 29.69in /  1005.3hPa SSW 2.7mph /  4.3km/h 5mph /  8km/h 89% 0.00in /  0mm 0 W/m2
03:04 60 °F /  15.6 °C 56.8 °F /  13.8 °C 29.69in /  1005.3hPa SSW 3.2mph /  5.1km/h 9mph /  14.5km/h 89% 0.00in /  0mm 0 W/m2
03:09 59.9 °F /  15.5 °C 56.7 °F /  13.7 °C 29.69in /  1005.3hPa SSW 2.7mph /  4.3km/h 7mph /  11.3km/h 89% 0.00in /  0mm 0 W/m2
03:14 59.8 °F /  15.4 °C 56.5 °F /  13.6 °C 29.69in /  1005.3hPa SSW 2.4mph /  3.9km/h 7mph /  11.3km/h 89% 0.00in /  0mm 0 W/m2
03:19 59.6 °F /  15.3 °C 56.3 °F /  13.5 °C 29.69in /  1005.3hPa SSW 2.7mph /  4.3km/h 6mph /  9.7km/h 89% 0.00in /  0mm 0 W/m2
03:24 59.4 °F /  15.2 °C 56.3 °F /  13.5 °C 29.69in /  1005.3hPa SSW 3.2mph /  5.1km/h 7mph /  11.3km/h 89.5% 0.00in /  0mm 0 W/m2
03:29 59.3 °F /  15.2 °C 56.4 °F /  13.6 °C 29.68in /  1005hPa SSW 2.9mph /  4.7km/h 6mph /  9.7km/h 90% 0.00in /  0mm 0 W/m2
03:34 59.2 °F /  15.1 °C 56.3 °F /  13.5 °C 29.69in /  1005.3hPa SW 2.1mph /  3.4km/h 5mph /  8km/h 90% 0.00in /  0mm 0 W/m2
03:39 59.2 °F /  15.1 °C 56.2 °F /  13.4 °C 29.68in /  1005hPa SW 2.3mph /  3.7km/h 7mph /  11.3km/h 90% 0.00in /  0mm 0 W/m2
03:44 59.1 °F /  15.1 °C 56.1 °F /  13.4 °C 29.69in /  1005.3hPa SW 1.9mph /  3.1km/h 5mph /  8km/h 90% 0.00in /  0mm 0 W/m2
03:49 59 °F /  15 °C 56.1 °F /  13.4 °C 29.68in /  1005hPa SSW 2.4mph /  3.9km/h 6mph /  9.7km/h 90% 0.00in /  0mm 0 W/m2
03:54 58.9 °F /  14.9 °C 56.2 °F /  13.4 °C 29.68in /  1005hPa SSW 2.4mph /  3.9km/h 6mph /  9.7km/h 90.8% 0.00in /  0mm 0 W/m2
03:59 58.8 °F /  14.9 °C 56.2 °F /  13.4 °C 29.68in /  1005hPa SSW 2.8mph /  4.5km/h 7mph /  11.3km/h 91% 0.00in /  0mm 0 W/m2
04:04 58.8 °F /  14.9 °C 56.1 °F /  13.4 °C 29.68in /  1005hPa SSW 2.5mph /  4km/h 6mph /  9.7km/h 91% 0.00in /  0mm 0 W/m2
04:09 58.7 °F /  14.8 °C 56.1 °F /  13.4 °C 29.68in /  1005hPa SSW 2.2mph /  3.5km/h 7mph /  11.3km/h 91% 0.00in /  0mm 0 W/m2
04:14 58.6 °F /  14.8 °C 56 °F /  13.3 °C 29.68in /  1005hPa SW 2.6mph /  4.2km/h 7mph /  11.3km/h 91% 0.00in /  0mm 0 W/m2
04:19 58.6 °F /  14.8 °C 56 °F /  13.3 °C 29.68in /  1005hPa SSW 2.5mph /  4km/h 8mph /  12.9km/h 91% 0.00in /  0mm 0 W/m2
04:24 58.5 °F /  14.7 °C 55.9 °F /  13.3 °C 29.67in /  1004.6hPa SSW 1.6mph /  2.6km/h 6mph /  9.7km/h 91% 0.00in /  0mm 0 W/m2
04:29 58.4 °F /  14.7 °C 56 °F /  13.3 °C 29.67in /  1004.6hPa SW 1.7mph /  2.7km/h 4mph /  6.4km/h 91.7% 0.00in /  0mm 0 W/m2
04:34 58.3 °F /  14.6 °C 56 °F /  13.3 °C 29.67in /  1004.6hPa SW 2.7mph /  4.3km/h 8mph /  12.9km/h 92% 0.00in /  0mm 0 W/m2
04:39 58.3 °F /  14.6 °C 56 °F /  13.3 °C 29.67in /  1004.6hPa SW 2.4mph /  3.9km/h 6mph /  9.7km/h 92% 0.00in /  0mm 0 W/m2
04:44 58.3 °F /  14.6 °C 56 °F /  13.3 °C 29.67in /  1004.6hPa SW 2.5mph /  4km/h 6mph /  9.7km/h 92% 0.00in /  0mm 0 W/m2
04:49 58.2 °F /  14.6 °C 55.9 °F /  13.3 °C 29.67in /  1004.6hPa SW 2.5mph /  4km/h 6mph /  9.7km/h 92% 0.00in /  0mm 0 W/m2
04:54 58.1 °F /  14.5 °C 55.8 °F /  13.2 °C 29.67in /  1004.6hPa SSW 2.7mph /  4.3km/h 5mph /  8km/h 92% 0.00in /  0mm 0 W/m2
04:59 58 °F /  14.4 °C 55.7 °F /  13.2 °C 29.67in /  1004.6hPa SW 1.6mph /  2.6km/h 4mph /  6.4km/h 92% 0.00in /  0mm 0 W/m2
05:04 57.9 °F /  14.4 °C 55.6 °F /  13.1 °C 29.67in /  1004.6hPa SW 2.4mph /  3.9km/h 5mph /  8km/h 92% 0.00in /  0mm 0 W/m2
05:09 57.9 °F /  14.4 °C 55.6 °F /  13.1 °C 29.67in /  1004.6hPa SW 2.4mph /  3.9km/h 5mph /  8km/h 92% 0.00in /  0mm 0 W/m2
05:14 57.8 °F /  14.3 °C 55.6 °F /  13.1 °C 29.67in /  1004.6hPa SW 1.3mph /  2.1km/h 5mph /  8km/h 92.3% 0.00in /  0mm 0 W/m2
05:19 57.7 °F /  14.3 °C 55.7 °F /  13.2 °C 29.67in /  1004.6hPa SW 1.4mph /  2.3km/h 5mph /  8km/h 93% 0.00in /  0mm 0 W/m2
05:24 57.6 °F /  14.2 °C 55.6 °F /  13.1 °C 29.67in /  1004.6hPa SSW 1.5mph /  2.4km/h 4mph /  6.4km/h 93% 0.00in /  0mm 0 W/m2
05:29 57.6 °F /  14.2 °C 55.6 °F /  13.1 °C 29.67in /  1004.6hPa SW 1.4mph /  2.3km/h 4mph /  6.4km/h 93% 0.00in /  0mm 0 W/m2
05:34 57.5 °F /  14.2 °C 55.5 °F /  13.1 °C 29.67in /  1004.6hPa SW 1.4mph /  2.3km/h 3mph /  4.8km/h 93% 0.00in /  0mm 0 W/m2
05:39 57.5 °F /  14.2 °C 55.5 °F /  13.1 °C 29.67in /  1004.6hPa SW 1.6mph /  2.6km/h 4mph /  6.4km/h 93% 0.00in /  0mm 0 W/m2
05:44 57.4 °F /  14.1 °C 55.4 °F /  13 °C 29.67in /  1004.6hPa SW 1.3mph /  2.1km/h 3mph /  4.8km/h 93% 0.00in /  0mm 0 W/m2
05:49 57.4 °F /  14.1 °C 55.4 °F /  13 °C 29.67in /  1004.6hPa SW 1.5mph /  2.4km/h 4mph /  6.4km/h 93% 0.00in /  0mm 0 W/m2
05:54 57.3 °F /  14.1 °C 55.3 °F /  12.9 °C 29.67in /  1004.6hPa WSW 1mph /  1.6km/h 3mph /  4.8km/h 93% 0.00in /  0mm 0 W/m2
05:59 57.1 °F /  13.9 °C 55.1 °F /  12.8 °C 29.67in /  1004.6hPa SW 1.1mph /  1.8km/h 3mph /  4.8km/h 93% 0.00in /  0mm 0 W/m2
06:04 57 °F /  13.9 °C 55 °F /  12.8 °C 29.67in /  1004.6hPa SW 1mph /  1.6km/h 3mph /  4.8km/h 93% 0.00in /  0mm 0 W/m2
06:09 56.8 °F /  13.8 °C 54.8 °F /  12.7 °C 29.67in /  1004.6hPa SW 1.6mph /  2.6km/h 6mph /  9.7km/h 93% 0.00in /  0mm 0 W/m2
06:14 56.8 °F /  13.8 °C 54.8 °F /  12.7 °C 29.67in /  1004.6hPa SW 1.5mph /  2.4km/h 4mph /  6.4km/h 93% 0.00in /  0mm 0 W/m2
06:19 56.7 °F /  13.7 °C 54.7 °F /  12.6 °C 29.67in /  1004.6hPa SW 2.1mph /  3.4km/h 4mph /  6.4km/h 93% 0.00in /  0mm 0 W/m2
06:24 56.7 °F /  13.7 °C 55 °F /  12.8 °C 29.67in /  1004.6hPa SSW 1.8mph /  2.9km/h 5mph /  8km/h 93.9% 0.00in /  0mm 0 W/m2
06:29 56.6 °F /  13.7 °C 54.9 °F /  12.7 °C 29.67in /  1004.6hPa SSW 1.8mph /  2.9km/h 4mph /  6.4km/h 94% 0.00in /  0mm 0 W/m2
06:34 56.6 °F /  13.7 °C 54.9 °F /  12.7 °C 29.67in /  1004.6hPa SW 1.8mph /  2.9km/h 4mph /  6.4km/h 94% 0.00in /  0mm 0 W/m2
06:39 56.6 °F /  13.7 °C 54.9 °F /  12.7 °C 29.67in /  1004.6hPa SW 1.4mph /  2.3km/h 3mph /  4.8km/h 94% 0.00in /  0mm 0 W/m2
06:42 56.5 °F /  13.6 °C 54.8 °F /  12.7 °C 29.67in /  1004.6hPa SW 2.5mph /  4km/h 4mph /  6.4km/h 94% 0.00in /  0mm 0 W/m2
06:49 56.6 °F /  13.7 °C 54.9 °F /  12.7 °C 29.71in /  1006hPa West 2.4mph /  3.9km/h 6mph /  9.7km/h 94% 0.00in /  0mm 0 W/m2
06:54 56.7 °F /  13.7 °C 55 °F /  12.8 °C 29.71in /  1006hPa West 1.5mph /  2.4km/h 4mph /  6.4km/h 94% 0.00in /  0mm 0 W/m2
06:59 56.7 °F /  13.7 °C 55 °F /  12.8 °C 29.71in /  1006hPa West 1.9mph /  3.1km/h 5mph /  8km/h 94% 0.00in /  0mm 0 W/m2
07:04 56.7 °F /  13.7 °C 55 °F /  12.8 °C 29.71in /  1006hPa WSW 3mph /  4.8km/h 6mph /  9.7km/h 94% 0.00in /  0mm 5 W/m2
07:09 56.7 °F /  13.7 °C 55 °F /  12.8 °C 29.71in /  1006hPa WSW 1.5mph /  2.4km/h 4mph /  6.4km/h 94% 0.00in /  0mm 9 W/m2
07:14 56.6 °F /  13.7 °C 54.9 °F /  12.7 °C 29.71in /  1006hPa West 1.4mph /  2.3km/h 3mph /  4.8km/h 94% 0.00in /  0mm 12 W/m2
07:19 56.5 °F /  13.6 °C 54.8 °F /  12.7 °C 29.71in /  1006hPa West 0.8mph /  1.3km/h 2mph /  3.2km/h 94% 0.00in /  0mm 16 W/m2
07:24 56.3 °F /  13.5 °C 54.6 °F /  12.6 °C 29.72in /  1006.3hPa West 0.9mph /  1.4km/h 2mph /  3.2km/h 94% 0.00in /  0mm 21 W/m2
07:29 56.2 °F /  13.4 °C 54.5 °F /  12.5 °C 29.72in /  1006.3hPa West 0.8mph /  1.3km/h 3mph /  4.8km/h 94% 0.00in /  0mm 32 W/m2
07:34 56.1 °F /  13.4 °C 54.4 °F /  12.4 °C 29.72in /  1006.3hPa West 0.9mph /  1.4km/h 3mph /  4.8km/h 94% 0.00in /  0mm 49 W/m2
07:39 56 °F /  13.3 °C 54.3 °F /  12.4 °C 29.73in /  1006.7hPa West 0.9mph /  1.4km/h 3mph /  4.8km/h 94% 0.00in /  0mm 49 W/m2
07:44 56.1 °F /  13.4 °C 54.4 °F /  12.4 °C 29.73in /  1006.7hPa West 1.1mph /  1.8km/h 3mph /  4.8km/h 94% 0.00in /  0mm 28 W/m2
07:49 56.2 °F /  13.4 °C 54.5 °F /  12.5 °C 29.73in /  1006.7hPa West 1.4mph /  2.3km/h 3mph /  4.8km/h 94% 0.00in /  0mm 42 W/m2
07:54 56.3 °F /  13.5 °C 54.6 °F /  12.6 °C 29.73in /  1006.7hPa WSW 2.1mph /  3.4km/h 4mph /  6.4km/h 94% 0.00in /  0mm 32 W/m2
07:59 56.3 °F /  13.5 °C 54.6 °F /  12.6 °C 29.72in /  1006.3hPa West 1.3mph /  2.1km/h 4mph /  6.4km/h 94% 0.00in /  0mm 32 W/m2
08:04 56.2 °F /  13.4 °C 54.5 °F /  12.5 °C 29.72in /  1006.3hPa WSW 1.6mph /  2.6km/h 4mph /  6.4km/h 94% 0.00in /  0mm 49 W/m2
08:09 56.1 °F /  13.4 °C 54.4 °F /  12.4 °C 29.72in /  1006.3hPa WSW 0.9mph /  1.4km/h 3mph /  4.8km/h 94% 0.00in /  0mm 53 W/m2
08:14 56 °F /  13.3 °C 54.3 °F /  12.4 °C 29.72in /  1006.3hPa WSW 1.5mph /  2.4km/h 4mph /  6.4km/h 94% 0.00in /  0mm 63 W/m2
08:19 56 °F /  13.3 °C 54.3 °F /  12.4 °C 29.72in /  1006.3hPa WSW 1.4mph /  2.3km/h 4mph /  6.4km/h 94% 0.00in /  0mm 69 W/m2
08:24 56 °F /  13.3 °C 54.3 °F /  12.4 °C 29.72in /  1006.3hPa WSW 1.8mph /  2.9km/h 4mph /  6.4km/h 94% 0.00in /  0mm 70 W/m2
08:29 56 °F /  13.3 °C 54.3 °F /  12.4 °C 29.72in /  1006.3hPa SW 2mph /  3.2km/h 4mph /  6.4km/h 94% 0.00in /  0mm 91 W/m2
08:34 56.1 °F /  13.4 °C 54.5 °F /  12.5 °C 29.72in /  1006.3hPa SW 2.3mph /  3.7km/h 6mph /  9.7km/h 94.6% 0.00in /  0mm 93 W/m2
08:39 56.1 °F /  13.4 °C 54.7 °F /  12.6 °C 29.71in /  1006hPa SW 2.2mph /  3.5km/h 5mph /  8km/h 95% 0.00in /  0mm 109 W/m2
08:44 56.3 °F /  13.5 °C 54.9 °F /  12.7 °C 29.72in /  1006.3hPa South 1.5mph /  2.4km/h 4mph /  6.4km/h 95% 0.00in /  0mm 104 W/m2
08:49 56.4 °F /  13.6 °C 55 °F /  12.8 °C 29.71in /  1006hPa SSW 2.5mph /  4km/h 6mph /  9.7km/h 95% 0.00in /  0mm 109 W/m2
08:54 56.5 °F /  13.6 °C 55.1 °F /  12.8 °C 29.71in /  1006hPa SW 2.4mph /  3.9km/h 6mph /  9.7km/h 95% 0.00in /  0mm 125 W/m2
08:59 56.6 °F /  13.7 °C 55.2 °F /  12.9 °C 29.71in /  1006hPa SW 1.9mph /  3.1km/h 5mph /  8km/h 95% 0.00in /  0mm 142 W/m2
09:04 56.8 °F /  13.8 °C 55.4 °F /  13 °C 29.72in /  1006.3hPa SW 1.8mph /  2.9km/h 4mph /  6.4km/h 95% 0.00in /  0mm 142 W/m2
09:09 56.9 °F /  13.8 °C 55.5 °F /  13.1 °C 29.72in /  1006.3hPa SW 1.8mph /  2.9km/h 3mph /  4.8km/h 95% 0.00in /  0mm 137 W/m2
09:14 57 °F /  13.9 °C 55.6 °F /  13.1 °C 29.72in /  1006.3hPa WSW 2.9mph /  4.7km/h 6mph /  9.7km/h 95% 0.00in /  0mm 149 W/m2
09:19 57 °F /  13.9 °C 55.6 °F /  13.1 °C 29.72in /  1006.3hPa SW 2.7mph /  4.3km/h 5mph /  8km/h 95% 0.00in /  0mm 162 W/m2
09:24 57.1 °F /  13.9 °C 55.7 °F /  13.2 °C 29.72in /  1006.3hPa SW 2.8mph /  4.5km/h 5mph /  8km/h 95% 0.00in /  0mm 162 W/m2
09:29 57.2 °F /  14 °C 55.8 °F /  13.2 °C 29.73in /  1006.7hPa SW 2.1mph /  3.4km/h 5mph /  8km/h 95% 0.00in /  0mm 227 W/m2
09:34 57.2 °F /  14 °C 55.8 °F /  13.2 °C 29.73in /  1006.7hPa SW 4.3mph /  6.9km/h 8mph /  12.9km/h 95% 0.00in /  0mm 236 W/m2
09:39 57.2 °F /  14 °C 55.8 °F /  13.2 °C 29.73in /  1006.7hPa SW 3.8mph /  6.1km/h 7mph /  11.3km/h 95% 0.00in /  0mm 223 W/m2
09:44 57.4 °F /  14.1 °C 55.9 °F /  13.3 °C 29.73in /  1006.7hPa SW 3.7mph /  6km/h 8mph /  12.9km/h 95% 0.00in /  0mm 199 W/m2
09:49 57.4 °F /  14.1 °C 56 °F /  13.3 °C 29.73in /  1006.7hPa SW 3.9mph /  6.3km/h 9mph /  14.5km/h 95% 0.00in /  0mm 243 W/m2
09:54 57.3 °F /  14.1 °C 55.9 °F /  13.3 °C 29.73in /  1006.7hPa SW 3.4mph /  5.5km/h 9mph /  14.5km/h 95% 0.00in /  0mm 411 W/m2
09:59 57.5 °F /  14.2 °C 56.1 °F /  13.4 °C 29.73in /  1006.7hPa SW 3.3mph /  5.3km/h 7mph /  11.3km/h 95% 0.00in /  0mm 376 W/m2
10:04 57.8 °F /  14.3 °C 56.4 °F /  13.6 °C 29.74in /  1007hPa WSW 2.7mph /  4.3km/h 7mph /  11.3km/h 95% 0.00in /  0mm 415 W/m2
10:09 57.9 °F /  14.4 °C 56.5 °F /  13.6 °C 29.74in /  1007hPa WSW 2.5mph /  4km/h 7mph /  11.3km/h 95% 0.00in /  0mm 336 W/m2
10:14 58.6 °F /  14.8 °C 57.2 °F /  14 °C 29.75in /  1007.3hPa SW 1.8mph /  2.9km/h 7mph /  11.3km/h 95% 0.00in /  0mm 264 W/m2
10:19 59.1 °F /  15.1 °C 57.4 °F /  14.1 °C 29.75in /  1007.3hPa WSW 2.9mph /  4.7km/h 7mph /  11.3km/h 94% 0.00in /  0mm 255 W/m2
10:24 59.7 °F /  15.4 °C 57.7 °F /  14.3 °C 29.74in /  1007hPa WSW 2.6mph /  4.2km/h 5mph /  8km/h 93.1% 0.00in /  0mm 490 W/m2
10:29 60.4 °F /  15.8 °C 57.8 °F /  14.3 °C 29.74in /  1007hPa WSW 2.7mph /  4.3km/h 6mph /  9.7km/h 91.3% 0.00in /  0mm 476 W/m2
10:34 61.1 °F /  16.2 °C 57.9 °F /  14.4 °C 29.74in /  1007hPa SW 2.5mph /  4km/h 5mph /  8km/h 89.4% 0.00in /  0mm 482 W/m2
10:39 62 °F /  16.7 °C 58 °F /  14.4 °C 29.75in /  1007.3hPa SW 2.6mph /  4.2km/h 7mph /  11.3km/h 86.8% 0.00in /  0mm 510 W/m2
10:44 62.8 °F /  17.1 °C 57.9 °F /  14.4 °C 29.75in /  1007.3hPa SSW 2.6mph /  4.2km/h 6mph /  9.7km/h 83.9% 0.00in /  0mm 538 W/m2
10:49 63.8 °F /  17.7 °C 57.9 °F /  14.4 °C 29.74in /  1007hPa South 1.5mph /  2.4km/h 4mph /  6.4km/h 81.1% 0.00in /  0mm 570 W/m2
10:54 64.4 °F /  18 °C 57.8 °F /  14.3 °C 29.74in /  1007hPa SW 3.2mph /  5.1km/h 6mph /  9.7km/h 78.9% 0.00in /  0mm 603 W/m2
10:59 64.8 °F /  18.2 °C 57.4 °F /  14.1 °C 29.74in /  1007hPa SSW 2.1mph /  3.4km/h 6mph /  9.7km/h 76.9% 0.00in /  0mm 628 W/m2
11:04 65.7 °F /  18.7 °C 57.9 °F /  14.4 °C 29.74in /  1007hPa WSW 1.3mph /  2.1km/h 3mph /  4.8km/h 76.1% 0.00in /  0mm 656 W/m2
11:09 67.1 °F /  19.5 °C 58 °F /  14.4 °C 29.74in /  1007hPa West 1mph /  1.6km/h 3mph /  4.8km/h 72.6% 0.00in /  0mm 666 W/m2
11:14 68 °F /  20 °C 58.2 °F /  14.6 °C 29.74in /  1007hPa WSW 1.7mph /  2.7km/h 4mph /  6.4km/h 71% 0.00in /  0mm 679 W/m2
11:19 68.8 °F /  20.4 °C 58.2 °F /  14.6 °C 29.74in /  1007hPa West 1.3mph /  2.1km/h 3mph /  4.8km/h 69% 0.00in /  0mm 686 W/m2
11:24 69.5 °F /  20.8 °C 58.3 °F /  14.6 °C 29.74in /  1007hPa West 1.3mph /  2.1km/h 6mph /  9.7km/h 67.7% 0.00in /  0mm 696 W/m2
11:29 70.3 °F /  21.3 °C 57.5 °F /  14.2 °C 29.74in /  1007hPa WNW 1.6mph /  2.6km/h 4mph /  6.4km/h 63.9% 0.00in /  0mm 707 W/m2
11:34 70.8 °F /  21.6 °C 57.4 °F /  14.1 °C 29.74in /  1007hPa NW 1.6mph /  2.6km/h 4mph /  6.4km/h 62.6% 0.00in /  0mm 715 W/m2
11:39 70.9 °F /  21.6 °C 56.9 °F /  13.8 °C 29.74in /  1007hPa West 1.5mph /  2.4km/h 4mph /  6.4km/h 61% 0.00in /  0mm 724 W/m2
11:44 71.7 °F /  22.1 °C 56.9 °F /  13.8 °C 29.74in /  1007hPa West 0.6mph /  1km/h 3mph /  4.8km/h 59.6% 0.00in /  0mm 731 W/m2
11:49 72.6 °F /  22.6 °C 57.1 °F /  13.9 °C 29.73in /  1006.7hPa West 2mph /  3.2km/h 5mph /  8km/h 58.2% 0.00in /  0mm 740 W/m2
11:54 72.9 °F /  22.7 °C 56.4 °F /  13.6 °C 29.73in /  1006.7hPa West 2mph /  3.2km/h 5mph /  8km/h 56.1% 0.00in /  0mm 749 W/m2
11:59 73.2 °F /  22.9 °C 57.1 °F /  13.9 °C 29.73in /  1006.7hPa WSW 1.8mph /  2.9km/h 4mph /  6.4km/h 57.2% 0.00in /  0mm 752 W/m2
12:04 75.2 °F /  24 °C 57.8 °F /  14.3 °C 29.73in /  1006.7hPa West 1.1mph /  1.8km/h 3mph /  4.8km/h 54.7% 0.00in /  0mm 763 W/m2
12:09 76.3 °F /  24.6 °C 56.8 °F /  13.8 °C 29.73in /  1006.7hPa WNW 1.8mph /  2.9km/h 4mph /  6.4km/h 50.9% 0.00in /  0mm 766 W/m2
12:14 76.8 °F /  24.9 °C 57.1 °F /  13.9 °C 29.73in /  1006.7hPa North 0.9mph /  1.4km/h 3mph /  4.8km/h 50.6% 0.00in /  0mm 775 W/m2
12:19 77.5 °F /  25.3 °C 55.8 °F /  13.2 °C 29.72in /  1006.3hPa West 2.2mph /  3.5km/h 5mph /  8km/h 47.3% 0.00in /  0mm 780 W/m2
12:24 78.1 °F /  25.6 °C 56.2 °F /  13.4 °C 29.72in /  1006.3hPa NNW 2.4mph /  3.9km/h 6mph /  9.7km/h 46.8% 0.00in /  0mm 786 W/m2
12:29 78.4 °F /  25.8 °C 55.9 °F /  13.3 °C 29.72in /  1006.3hPa WNW 1.7mph /  2.7km/h 6mph /  9.7km/h 45.9% 0.00in /  0mm 791 W/m2
12:34 78.7 °F /  25.9 °C 56 °F /  13.3 °C 29.72in /  1006.3hPa NNW 1.6mph /  2.6km/h 4mph /  6.4km/h 45.7% 0.00in /  0mm 796 W/m2
12:39 79.6 °F /  26.4 °C 55.5 °F /  13.1 °C 29.72in /  1006.3hPa North 1.8mph /  2.9km/h 4mph /  6.4km/h 43.7% 0.00in /  0mm 802 W/m2
12:44 80 °F /  26.7 °C 54.5 °F /  12.5 °C 29.72in /  1006.3hPa WNW 1.8mph /  2.9km/h 4mph /  6.4km/h 41.5% 0.00in /  0mm 803 W/m2
12:49 80.9 °F /  27.2 °C 54.5 °F /  12.5 °C 29.71in /  1006hPa WNW 1.5mph /  2.4km/h 4mph /  6.4km/h 40.1% 0.00in /  0mm 807 W/m2
12:54 81.4 °F /  27.4 °C 52.6 °F /  11.4 °C 29.71in /  1006hPa WSW 2mph /  3.2km/h 5mph /  8km/h 36.9% 0.00in /  0mm 810 W/m2
12:59 82.2 °F /  27.9 °C 53.2 °F /  11.8 °C 29.71in /  1006hPa NNW 1.3mph /  2.1km/h 5mph /  8km/h 36.8% 0.00in /  0mm 810 W/m2
13:04 83.5 °F /  28.6 °C 52.9 °F /  11.6 °C 29.71in /  1006hPa WSW 1.4mph /  2.3km/h 4mph /  6.4km/h 34.9% 0.00in /  0mm 812 W/m2
13:09 82.8 °F /  28.2 °C 52 °F /  11.1 °C 29.71in /  1006hPa SW 1.9mph /  3.1km/h 5mph /  8km/h 34.5% 0.00in /  0mm 816 W/m2
13:14 83.1 °F /  28.4 °C 53 °F /  11.7 °C 29.71in /  1006hPa WSW 2.4mph /  3.9km/h 6mph /  9.7km/h 35.5% 0.00in /  0mm 817 W/m2
13:19 83 °F /  28.3 °C 52.2 °F /  11.2 °C 29.71in /  1006hPa SW 2.3mph /  3.7km/h 6mph /  9.7km/h 34.5% 0.00in /  0mm 814 W/m2
13:24 83.5 °F /  28.6 °C 52.1 °F /  11.2 °C 29.70in /  1005.6hPa SW 1.1mph /  1.8km/h 3mph /  4.8km/h 34% 0.00in /  0mm 800 W/m2
13:29 84.2 °F /  29 °C 52.1 °F /  11.2 °C 29.70in /  1005.6hPa SW 2.3mph /  3.7km/h 6mph /  9.7km/h 33.1% 0.00in /  0mm 779 W/m2
13:34 84.7 °F /  29.3 °C 48 °F /  8.9 °C 29.70in /  1005.6hPa SW 2.5mph /  4km/h 5mph /  8km/h 28% 0.00in /  0mm 761 W/m2
13:39 85.9 °F /  29.9 °C 46.7 °F /  8.2 °C 29.69in /  1005.3hPa WSW 3.7mph /  6km/h 9mph /  14.5km/h 25.7% 0.00in /  0mm 770 W/m2
13:44 86.7 °F /  30.4 °C 43.1 °F /  6.2 °C 29.69in /  1005.3hPa West 2.6mph /  4.2km/h 7mph /  11.3km/h 21.8% 0.00in /  0mm 789 W/m2
13:49 87.9 °F /  31.1 °C 42.3 °F /  5.7 °C 29.69in /  1005.3hPa West 2.9mph /  4.7km/h 7mph /  11.3km/h 20.4% 0.00in /  0mm 816 W/m2
13:54 88.2 °F /  31.2 °C 39.7 °F /  4.3 °C 29.69in /  1005.3hPa West 3.8mph /  6.1km/h 10mph /  16.1km/h 18.2% 0.00in /  0mm 821 W/m2
13:59 88.6 °F /  31.4 °C 39.2 °F /  4 °C 29.69in /  1005.3hPa WNW 3.4mph /  5.5km/h 12mph /  19.3km/h 17.6% 0.00in /  0mm 824 W/m2
14:04 88.6 °F /  31.4 °C 36.3 °F /  2.4 °C 29.69in /  1005.3hPa WNW 4.7mph /  7.6km/h 13mph /  20.9km/h 15.7% 0.00in /  0mm 817 W/m2
14:09 88.6 °F /  31.4 °C 36.6 °F /  2.6 °C 29.69in /  1005.3hPa WNW 4.6mph /  7.4km/h 10mph /  16.1km/h 16% 0.00in /  0mm 814 W/m2
14:14 88.4 °F /  31.3 °C 36.7 °F /  2.6 °C 29.69in /  1005.3hPa WNW 4.4mph /  7.1km/h 12mph /  19.3km/h 16.1% 0.00in /  0mm 812 W/m2
14:19 88.1 °F /  31.2 °C 34.7 °F /  1.5 °C 29.69in /  1005.3hPa WNW 5.5mph /  8.9km/h 17mph /  27.4km/h 15% 0.00in /  0mm 809 W/m2
14:24 88.1 °F /  31.2 °C 34.4 °F /  1.3 °C 29.69in /  1005.3hPa WNW 3.9mph /  6.3km/h 9mph /  14.5km/h 14.8% 0.00in /  0mm 802 W/m2
14:29 88.6 °F /  31.4 °C 37 °F /  2.8 °C 29.68in /  1005hPa NW 4.3mph /  6.9km/h 8mph /  12.9km/h 16.2% 0.00in /  0mm 796 W/m2
14:34 88.8 °F /  31.6 °C 35.9 °F /  2.2 °C 29.68in /  1005hPa WNW 5.1mph /  8.2km/h 15mph /  24.1km/h 15.4% 0.00in /  0mm 796 W/m2
14:39 88.7 °F /  31.5 °C 37.4 °F /  3 °C 29.68in /  1005hPa WNW 4mph /  6.4km/h 10mph /  16.1km/h 16.4% 0.00in /  0mm 791 W/m2
14:44 88.7 °F /  31.5 °C 34.7 °F /  1.5 °C 29.68in /  1005hPa WNW 5.7mph /  9.2km/h 13mph /  20.9km/h 14.7% 0.00in /  0mm 782 W/m2
14:49 88.5 °F /  31.4 °C 34.4 °F /  1.3 °C 29.68in /  1005hPa NW 5.2mph /  8.4km/h 12mph /  19.3km/h 14.6% 0.00in /  0mm 777 W/m2
14:54 88.2 °F /  31.2 °C 34.8 °F /  1.6 °C 29.68in /  1005hPa NW 6.6mph /  10.6km/h 16mph /  25.7km/h 15% 0.00in /  0mm 770 W/m2
14:59 88.1 °F /  31.2 °C 36.1 °F /  2.3 °C 29.68in /  1005hPa NW 5.2mph /  8.4km/h 16mph /  25.7km/h 15.9% 0.00in /  0mm 763 W/m2
15:04 88.3 °F /  31.3 °C 36.6 °F /  2.6 °C 29.68in /  1005hPa NW 6.1mph /  9.8km/h 14mph /  22.5km/h 16.1% 0.00in /  0mm 754 W/m2
15:09 88.1 °F /  31.2 °C 35.3 °F /  1.8 °C 29.67in /  1004.6hPa WNW 5.9mph /  9.5km/h 12mph /  19.3km/h 15.4% 0.00in /  0mm 747 W/m2
15:14 87.9 °F /  31.1 °C 36.7 °F /  2.6 °C 29.67in /  1004.6hPa NW 4.5mph /  7.2km/h 12mph /  19.3km/h 16.4% 0.00in /  0mm 742 W/m2
15:19 88 °F /  31.1 °C 36.8 °F /  2.7 °C 29.67in /  1004.6hPa WNW 5.2mph /  8.4km/h 13mph /  20.9km/h 16.4% 0.00in /  0mm 731 W/m2
15:24 88.1 °F /  31.2 °C 37.4 °F /  3 °C 29.67in /  1004.6hPa NW 4.1mph /  6.6km/h 9mph /  14.5km/h 16.7% 0.00in /  0mm 726 W/m2
15:29 88.3 °F /  31.3 °C 38.7 °F /  3.7 °C 29.67in /  1004.6hPa NW 3.9mph /  6.3km/h 9mph /  14.5km/h 17.4% 0.00in /  0mm 717 W/m2
15:34 88.5 °F /  31.4 °C 38.2 °F /  3.4 °C 29.66in /  1004.3hPa NW 5.9mph /  9.5km/h 16mph /  25.7km/h 17% 0.00in /  0mm 705 W/m2
15:39 88 °F /  31.1 °C 36.2 °F /  2.3 °C 29.66in /  1004.3hPa WNW 5mph /  8km/h 11mph /  17.7km/h 16% 0.00in /  0mm 698 W/m2
15:44 87.7 °F /  30.9 °C 37.1 °F /  2.8 °C 29.66in /  1004.3hPa WNW 4mph /  6.4km/h 11mph /  17.7km/h 16.7% 0.00in /  0mm 687 W/m2
15:49 87.7 °F /  30.9 °C 36.6 °F /  2.6 °C 29.66in /  1004.3hPa NW 6.2mph /  10km/h 15mph /  24.1km/h 16.4% 0.00in /  0mm 682 W/m2
15:54 87.7 °F /  30.9 °C 36.6 °F /  2.6 °C 29.66in /  1004.3hPa WNW 5.1mph /  8.2km/h 10mph /  16.1km/h 16.4% 0.00in /  0mm 671 W/m2
15:59 87.6 °F /  30.9 °C 35.9 °F /  2.2 °C 29.66in /  1004.3hPa NW 4.5mph /  7.2km/h 10mph /  16.1km/h 16% 0.00in /  0mm 661 W/m2
16:04 87.7 °F /  30.9 °C 35.5 °F /  1.9 °C 29.66in /  1004.3hPa WNW 4.6mph /  7.4km/h 12mph /  19.3km/h 15.7% 0.00in /  0mm 650 W/m2
16:09 87.8 °F /  31 °C 35.6 °F /  2 °C 29.66in /  1004.3hPa WNW 4.2mph /  6.8km/h 11mph /  17.7km/h 15.7% 0.00in /  0mm 633 W/m2
16:14 88 °F /  31.1 °C 36.5 °F /  2.5 °C 29.66in /  1004.3hPa WNW 5mph /  8km/h 11mph /  17.7km/h 16.1% 0.00in /  0mm 624 W/m2
16:19 88 °F /  31.1 °C 36.6 °F /  2.6 °C 29.66in /  1004.3hPa NW 4.1mph /  6.6km/h 9mph /  14.5km/h 16.2% 0.00in /  0mm 610 W/m2
16:24 88 °F /  31.1 °C 35.7 °F /  2.1 °C 29.66in /  1004.3hPa NW 4.3mph /  6.9km/h 8mph /  12.9km/h 15.7% 0.00in /  0mm 599 W/m2
16:29 87.9 °F /  31.1 °C 34.8 °F /  1.6 °C 29.66in /  1004.3hPa West 5.4mph /  8.7km/h 13mph /  20.9km/h 15.2% 0.00in /  0mm 589 W/m2
16:34 87.5 °F /  30.8 °C 36 °F /  2.2 °C 29.66in /  1004.3hPa WNW 4.3mph /  6.9km/h 13mph /  20.9km/h 16.1% 0.00in /  0mm 573 W/m2
16:39 87.5 °F /  30.8 °C 35.6 °F /  2 °C 29.66in /  1004.3hPa WNW 5.8mph /  9.3km/h 12mph /  19.3km/h 15.8% 0.00in /  0mm 563 W/m2
16:44 87.3 °F /  30.7 °C 35.9 °F /  2.2 °C 29.66in /  1004.3hPa NNW 4.2mph /  6.8km/h 12mph /  19.3km/h 16.2% 0.00in /  0mm 548 W/m2
16:49 87.3 °F /  30.7 °C 36.2 °F /  2.3 °C 29.66in /  1004.3hPa WNW 2.8mph /  4.5km/h 8mph /  12.9km/h 16.3% 0.00in /  0mm 534 W/m2
16:54 87.8 °F /  31 °C 36.4 °F /  2.4 °C 29.66in /  1004.3hPa NNW 4.6mph /  7.4km/h 11mph /  17.7km/h 16.2% 0.00in /  0mm 520 W/m2
16:59 87.9 °F /  31.1 °C 35.8 °F /  2.1 °C 29.66in /  1004.3hPa West 2.8mph /  4.5km/h 8mph /  12.9km/h 15.8% 0.00in /  0mm 508 W/m2
17:04 88.1 °F /  31.2 °C 35.6 °F /  2 °C 29.66in /  1004.3hPa West 4.4mph /  7.1km/h 10mph /  16.1km/h 15.5% 0.00in /  0mm 492 W/m2
17:09 88 °F /  31.1 °C 36.1 °F /  2.3 °C 29.66in /  1004.3hPa West 2.9mph /  4.7km/h 9mph /  14.5km/h 15.9% 0.00in /  0mm 478 W/m2
17:14 88.2 °F /  31.2 °C 36 °F /  2.2 °C 29.66in /  1004.3hPa West 3.1mph /  5km/h 10mph /  16.1km/h 15.8% 0.00in /  0mm 461 W/m2
17:19 88.3 °F /  31.3 °C 34.9 °F /  1.6 °C 29.66in /  1004.3hPa WNW 4.1mph /  6.6km/h 12mph /  19.3km/h 15.1% 0.00in /  0mm 448 W/m2
17:24 88.1 °F /  31.2 °C 34.3 °F /  1.3 °C 29.66in /  1004.3hPa West 4.8mph /  7.7km/h 13mph /  20.9km/h 14.8% 0.00in /  0mm 432 W/m2
17:29 87.7 °F /  30.9 °C 34.7 °F /  1.5 °C 29.66in /  1004.3hPa WNW 3.4mph /  5.5km/h 13mph /  20.9km/h 15.2% 0.00in /  0mm 415 W/m2
17:34 87.7 °F /  30.9 °C 35.2 °F /  1.8 °C 29.66in /  1004.3hPa NW 2.4mph /  3.9km/h 5mph /  8km/h 15.5% 0.00in /  0mm 397 W/m2
17:39 87.9 °F /  31.1 °C 36.1 °F /  2.3 °C 29.66in /  1004.3hPa NNW 3.5mph /  5.6km/h 9mph /  14.5km/h 16% 0.00in /  0mm 385 W/m2
17:44 87.8 °F /  31 °C 35.4 °F /  1.9 °C 29.66in /  1004.3hPa WNW 2.1mph /  3.4km/h 7mph /  11.3km/h 15.6% 0.00in /  0mm 367 W/m2
17:49 87.6 °F /  30.9 °C 35.7 °F /  2.1 °C 29.66in /  1004.3hPa WNW 2.9mph /  4.7km/h 6mph /  9.7km/h 15.9% 0.00in /  0mm 352 W/m2
17:54 87.5 °F /  30.8 °C 35.6 °F /  2 °C 29.66in /  1004.3hPa NW 3mph /  4.8km/h 6mph /  9.7km/h 15.8% 0.00in /  0mm 336 W/m2
66th and South
Compliments of Weather Underground - 12.36 mb